createdAt,value
2018-02-16T00:00:03.380Z,81.80
2018-02-16T00:02:29.565Z,81.80
2018-02-16T00:04:55.760Z,81.70
2018-02-16T00:07:22.331Z,81.70
2018-02-16T00:09:48.534Z,81.70
2018-02-16T00:12:14.699Z,81.80
2018-02-16T00:14:41.631Z,81.70
2018-02-16T00:17:07.881Z,81.70
2018-02-16T00:19:34.806Z,81.90
2018-02-16T00:22:01.031Z,81.70
2018-02-16T00:24:27.222Z,81.70
2018-02-16T00:26:53.423Z,81.70
2018-02-16T00:29:19.680Z,81.80
2018-02-16T00:31:45.999Z,81.90
2018-02-16T00:34:12.232Z,81.90
2018-02-16T00:36:38.492Z,81.90
2018-02-16T00:39:04.655Z,81.90
2018-02-16T00:41:31.608Z,82.00
2018-02-16T00:43:58.566Z,82.00
2018-02-16T00:46:24.763Z,81.90
2018-02-16T00:48:50.971Z,82.00
2018-02-16T00:51:17.157Z,81.90
2018-02-16T00:53:43.365Z,82.00
2018-02-16T00:56:10.496Z,82.00
2018-02-16T00:58:36.700Z,81.80
2018-02-16T01:01:02.969Z,81.90
2018-02-16T01:03:29.913Z,81.80
2018-02-16T01:05:56.118Z,81.80
2018-02-16T01:08:22.309Z,81.80
2018-02-16T01:10:48.513Z,81.80
2018-02-16T01:13:15.477Z,81.80
2018-02-16T01:15:41.655Z,81.80
2018-02-16T01:18:07.848Z,81.80
2018-02-16T01:20:34.060Z,81.80
2018-02-16T01:23:00.236Z,81.80
2018-02-16T01:25:26.394Z,81.80
2018-02-16T01:27:53.377Z,81.80
2018-02-16T01:30:19.565Z,81.80
2018-02-16T01:32:46.510Z,81.70
2018-02-16T01:35:13.447Z,81.80
2018-02-16T01:37:40.351Z,81.80
2018-02-16T01:40:06.531Z,81.70
2018-02-16T01:42:33.582Z,81.80
2018-02-16T01:45:00.518Z,81.80
2018-02-16T01:47:27.478Z,81.80
2018-02-16T01:50:04.802Z,81.70
2018-02-16T01:52:31.000Z,81.70
2018-02-16T01:54:57.199Z,81.70
2018-02-16T01:57:24.177Z,81.90
2018-02-16T01:59:50.334Z,81.80
2018-02-16T02:02:16.510Z,81.80
2018-02-16T02:04:42.727Z,81.80
2018-02-16T02:07:08.897Z,81.80
2018-02-16T02:09:35.079Z,82.20
2018-02-16T02:12:01.256Z,82.30
2018-02-16T02:14:27.602Z,82.20
2018-02-16T02:16:53.821Z,82.50
2018-02-16T02:19:20.014Z,82.20
2018-02-16T02:21:46.960Z,83.00
2018-02-16T02:24:13.883Z,82.20
2018-02-16T02:26:40.090Z,82.10
2018-02-16T02:29:06.259Z,82.40
2018-02-16T02:31:33.174Z,82.40
2018-02-16T02:33:59.392Z,82.30
2018-02-16T02:36:25.568Z,82.20
2018-02-16T02:38:52.501Z,82.10
2018-02-16T02:41:19.418Z,82.20
2018-02-16T02:43:45.597Z,82.00
2018-02-16T02:46:11.786Z,82.30
2018-02-16T02:48:37.988Z,82.10
2018-02-16T02:51:04.324Z,82.10
2018-02-16T02:53:30.545Z,82.30
2018-02-16T02:55:56.717Z,82.20
2018-02-16T02:58:22.964Z,82.10
2018-02-16T03:00:49.242Z,82.60
2018-02-16T03:03:15.563Z,82.20
2018-02-16T03:05:41.721Z,82.20
2018-02-16T03:08:07.901Z,82.10
2018-02-16T03:10:34.115Z,82.20
2018-02-16T03:13:00.312Z,82.20
2018-02-16T03:15:26.488Z,82.20
2018-02-16T03:17:52.714Z,82.30
2018-02-16T03:20:18.940Z,82.30
2018-02-16T03:22:45.121Z,82.20
2018-02-16T03:25:11.338Z,82.30
2018-02-16T03:27:37.495Z,82.20
2018-02-16T03:30:03.727Z,82.30
2018-02-16T03:32:29.979Z,83.20
2018-02-16T03:34:56.166Z,82.30
2018-02-16T03:37:22.330Z,82.30
2018-02-16T03:39:49.272Z,82.30
2018-02-16T03:42:16.195Z,82.20
2018-02-16T03:44:43.147Z,82.60
2018-02-16T03:47:09.359Z,82.20
2018-02-16T03:49:35.561Z,82.90
2018-02-16T03:52:01.754Z,82.20
2018-02-16T03:54:28.717Z,82.20
2018-02-16T03:56:54.880Z,82.20
2018-02-16T03:59:21.055Z,82.20
2018-02-16T04:01:47.301Z,82.10
2018-02-16T04:04:13.467Z,82.10
2018-02-16T04:06:39.649Z,82.10
2018-02-16T04:09:05.874Z,82.20
2018-02-16T04:11:32.077Z,82.10
2018-02-16T04:13:58.217Z,82.20
2018-02-16T04:16:25.124Z,82.20
2018-02-16T04:18:51.304Z,82.10
2018-02-16T04:21:17.493Z,82.20
2018-02-16T04:23:43.698Z,82.10
2018-02-16T04:26:09.884Z,82.20
2018-02-16T04:28:36.068Z,82.20
2018-02-16T04:31:02.279Z,82.20
2018-02-16T04:33:28.444Z,82.20
2018-02-16T04:35:55.432Z,82.60
2018-02-16T04:38:21.612Z,82.10
2018-02-16T04:40:47.820Z,82.20
2018-02-16T04:43:13.988Z,82.20
2018-02-16T04:45:40.908Z,82.20
2018-02-16T04:48:07.084Z,82.20
2018-02-16T04:50:33.261Z,82.20
2018-02-16T04:52:59.430Z,82.20
2018-02-16T04:55:25.655Z,82.20
2018-02-16T04:57:52.582Z,82.20
2018-02-16T05:00:19.510Z,82.20
2018-02-16T05:02:45.737Z,82.10
2018-02-16T05:05:12.700Z,82.20
2018-02-16T05:07:38.865Z,82.20
2018-02-16T05:10:05.080Z,82.20
2018-02-16T05:12:31.362Z,82.20
2018-02-16T05:14:57.534Z,82.20
2018-02-16T05:17:24.501Z,82.20
2018-02-16T05:19:50.675Z,82.10
2018-02-16T05:22:16.855Z,82.20
2018-02-16T05:24:43.040Z,82.20
2018-02-16T05:27:09.205Z,82.20
2018-02-16T05:29:35.409Z,82.20
2018-02-16T05:32:02.705Z,82.20
2018-02-16T05:34:28.877Z,82.10
2018-02-16T05:36:55.929Z,82.20
2018-02-16T05:39:22.903Z,82.30
2018-02-16T05:41:49.102Z,82.10
2018-02-16T05:44:15.473Z,82.20
2018-02-16T05:46:41.732Z,82.20
2018-02-16T05:49:07.965Z,82.20
2018-02-16T05:51:34.155Z,82.10
2018-02-16T05:54:00.302Z,82.20
2018-02-16T05:56:26.505Z,82.20
2018-02-16T05:58:52.835Z,82.20
2018-02-16T06:01:19.078Z,82.20
2018-02-16T06:03:45.290Z,82.20
2018-02-16T06:06:12.250Z,82.30
2018-02-16T06:08:38.415Z,82.20
2018-02-16T06:11:04.593Z,82.30
2018-02-16T06:13:30.796Z,82.40
2018-02-16T06:15:56.959Z,82.20
2018-02-16T06:21:27.392Z,82.10
2018-02-16T06:23:53.610Z,82.10
2018-02-16T06:26:19.855Z,82.20
2018-02-16T06:28:46.126Z,82.20
2018-02-16T06:31:12.339Z,82.20
2018-02-16T06:33:38.612Z,82.20
2018-02-16T06:36:05.632Z,82.30
2018-02-16T06:38:31.949Z,82.10
2018-02-16T06:40:58.220Z,82.20
2018-02-16T06:43:24.382Z,82.20
2018-02-16T06:45:50.631Z,82.20
2018-02-16T06:48:16.850Z,82.20
2018-02-16T06:50:43.188Z,82.20
2018-02-16T06:53:09.606Z,82.20
2018-02-16T06:55:35.811Z,82.20
2018-02-16T06:58:02.107Z,82.20
2018-02-16T07:00:32.754Z,82.20
2018-02-16T07:02:59.816Z,82.10
2018-02-16T07:05:26.809Z,82.10
2018-02-16T07:07:53.085Z,82.00
2018-02-16T07:10:19.443Z,82.10
2018-02-16T07:12:49.782Z,82.00
2018-02-16T07:15:16.100Z,82.10
2018-02-16T07:17:42.417Z,82.00
2018-02-16T07:20:08.702Z,82.00
2018-02-16T07:31:08.710Z,82.00
2018-02-16T07:33:35.669Z,82.00
2018-02-16T07:36:01.827Z,81.90
2018-02-16T07:38:28.078Z,81.90
2018-02-16T07:40:55.149Z,81.90
2018-02-16T07:43:22.042Z,81.90
2018-02-16T07:45:48.199Z,81.90
2018-02-16T07:48:14.398Z,82.60
2018-02-16T07:50:40.583Z,81.90
2018-02-16T07:53:07.503Z,81.90
2018-02-16T07:55:33.742Z,81.80
2018-02-16T07:57:59.935Z,81.90
2018-02-16T08:00:26.134Z,81.90
2018-02-16T08:02:52.315Z,81.90
2018-02-16T08:05:18.477Z,82.00
2018-02-16T08:07:46.121Z,81.80
2018-02-16T08:10:12.329Z,81.80
2018-02-16T08:12:38.516Z,82.00
2018-02-16T08:15:04.712Z,82.10
2018-02-16T08:17:31.637Z,82.00
2018-02-16T08:19:57.825Z,81.90
2018-02-16T08:22:24.026Z,82.00
2018-02-16T08:24:50.255Z,81.80
2018-02-16T08:27:16.436Z,81.80
2018-02-16T08:29:42.634Z,81.70
2018-02-16T08:32:08.821Z,81.80
2018-02-16T08:34:35.749Z,81.90
2018-02-16T08:37:08.852Z,81.80
2018-02-16T08:39:35.114Z,81.80
2018-02-16T08:42:01.267Z,81.70
2018-02-16T08:44:27.433Z,81.70
2018-02-16T08:46:53.585Z,81.70
2018-02-16T08:49:19.735Z,82.00
2018-02-16T08:51:45.940Z,81.80
2018-02-16T08:54:12.088Z,81.70
2018-02-16T08:56:38.287Z,81.70
2018-02-16T08:59:05.278Z,81.80
2018-02-16T09:01:31.456Z,81.70
2018-02-16T09:03:58.385Z,81.80
2018-02-16T09:06:24.613Z,81.80
2018-02-16T09:08:50.807Z,81.80
2018-02-16T09:11:17.106Z,81.80
2018-02-16T09:13:43.292Z,81.70
2018-02-16T09:16:09.459Z,81.50
2018-02-16T09:18:35.659Z,81.70
2018-02-16T09:21:01.819Z,81.30
2018-02-16T09:23:28.006Z,81.30
2018-02-16T09:25:54.189Z,81.20
2018-02-16T09:28:20.364Z,81.10
2018-02-16T09:30:46.569Z,81.00
2018-02-16T09:33:12.783Z,80.80
2018-02-16T09:35:47.032Z,80.90
2018-02-16T09:38:13.217Z,80.90
2018-02-16T09:40:39.411Z,81.00
2018-02-16T09:43:06.393Z,80.40
2018-02-16T09:45:32.568Z,80.40
2018-02-16T09:47:58.731Z,80.60
2018-02-16T09:50:24.957Z,80.50
2018-02-16T09:52:51.171Z,80.40
2018-02-16T09:55:18.075Z,80.10
2018-02-16T09:57:44.307Z,80.10
2018-02-16T10:00:10.500Z,80.00
2018-02-16T10:02:36.727Z,79.90
2018-02-16T10:05:02.925Z,80.10
2018-02-16T10:07:29.897Z,79.80
2018-02-16T10:09:56.064Z,79.70
2018-02-16T10:12:22.249Z,79.90
2018-02-16T10:14:48.481Z,80.00
2018-02-16T10:17:14.673Z,79.70
2018-02-16T10:19:40.886Z,79.70
2018-02-16T10:22:07.086Z,79.70
2018-02-16T10:24:36.496Z,79.60
2018-02-16T10:27:11.132Z,79.60
2018-02-16T10:29:37.324Z,79.70
2018-02-16T10:32:03.482Z,79.50
2018-02-16T10:34:29.703Z,79.50
2018-02-16T10:36:55.855Z,79.40
2018-02-16T10:39:22.125Z,79.40
2018-02-16T10:41:49.118Z,79.30
2018-02-16T10:44:15.253Z,79.20
2018-02-16T10:46:41.445Z,79.20
2018-02-16T10:49:07.687Z,79.40
2018-02-16T10:51:33.881Z,79.20
2018-02-16T10:54:00.830Z,78.40
2018-02-16T10:56:27.070Z,78.40
2018-02-16T10:58:53.229Z,78.40
2018-02-16T11:01:19.429Z,78.40
2018-02-16T11:03:51.818Z,78.40
2018-02-16T11:06:24.292Z,78.30
2018-02-16T11:08:56.799Z,78.40
2018-02-16T11:11:22.954Z,78.50
2018-02-16T11:13:49.911Z,78.70
2018-02-16T11:16:16.833Z,78.50
2018-02-16T11:18:43.121Z,78.50
2018-02-16T11:21:09.287Z,78.30
2018-02-16T11:23:35.504Z,78.60
2018-02-16T11:26:01.712Z,78.70
2018-02-16T11:28:27.861Z,78.70
2018-02-16T11:30:54.044Z,78.60
2018-02-16T11:33:20.221Z,78.40
2018-02-16T11:35:46.393Z,78.20
2018-02-16T11:38:12.617Z,78.20
2018-02-16T11:40:39.579Z,78.30
2018-02-16T11:43:05.769Z,78.30
2018-02-16T11:45:31.976Z,78.30
2018-02-16T11:47:58.134Z,78.20
2018-02-16T11:50:25.043Z,78.10
2018-02-16T11:52:51.206Z,78.00
2018-02-16T11:55:18.103Z,77.90
2018-02-16T11:57:44.333Z,77.80
2018-02-16T12:00:10.515Z,77.70
2018-02-16T12:02:37.420Z,78.40
2018-02-16T12:05:03.824Z,78.20
2018-02-16T12:07:29.986Z,78.30
2018-02-16T12:09:56.156Z,78.00
2018-02-16T12:12:22.355Z,78.40
2018-02-16T12:14:48.508Z,78.80
2018-02-16T12:17:15.441Z,78.50
2018-02-16T12:19:42.337Z,78.40
2018-02-16T12:22:08.526Z,78.30
2018-02-16T12:24:35.440Z,77.90
2018-02-16T12:27:01.639Z,77.90
2018-02-16T12:29:27.807Z,78.00
2018-02-16T12:31:53.951Z,78.30
2018-02-16T12:34:21.331Z,78.00
2018-02-16T12:36:47.488Z,77.50
2018-02-16T12:39:13.682Z,78.20
2018-02-16T12:41:39.980Z,77.50
2018-02-16T12:44:06.152Z,77.70
2018-02-16T12:46:32.330Z,77.50
2018-02-16T12:48:58.518Z,77.20
2018-02-16T12:51:24.666Z,77.40
2018-02-16T12:53:50.863Z,77.60
2018-02-16T12:56:17.104Z,76.70
2018-02-16T12:58:43.297Z,76.30
2018-02-16T13:01:10.207Z,76.10
2018-02-16T13:03:36.523Z,76.00
2018-02-16T13:06:02.823Z,76.40
2018-02-16T13:08:28.984Z,76.40
2018-02-16T13:10:55.237Z,77.70
2018-02-16T13:13:22.253Z,78.40
2018-02-16T13:15:48.441Z,77.50
2018-02-16T13:18:15.435Z,76.30
2018-02-16T13:20:42.152Z,76.20
2018-02-16T13:23:08.342Z,76.80
2018-02-16T13:25:35.287Z,75.90
2018-02-16T13:28:02.677Z,76.00
2018-02-16T13:30:28.877Z,76.00
2018-02-16T13:32:56.674Z,76.40
2018-02-16T13:35:22.883Z,76.40
2018-02-16T13:37:49.115Z,76.60
2018-02-16T13:40:15.316Z,77.30
2018-02-16T13:42:41.559Z,77.10
2018-02-16T13:45:08.481Z,76.50
2018-02-16T13:47:35.441Z,76.50
2018-02-16T13:50:01.745Z,76.40
2018-02-16T13:52:28.761Z,77.70
2018-02-16T13:54:54.970Z,76.80
2018-02-16T13:57:21.310Z,77.70
2018-02-16T13:59:47.573Z,77.30
2018-02-16T14:02:13.828Z,77.90
2018-02-16T14:04:39.998Z,77.70
2018-02-16T14:07:06.226Z,78.20
2018-02-16T14:09:32.414Z,77.70
2018-02-16T14:11:58.597Z,78.50
2018-02-16T14:14:24.825Z,77.50
2018-02-16T14:16:51.007Z,78.00
2018-02-16T14:19:17.953Z,78.30
2018-02-16T14:21:44.894Z,78.10
2018-02-16T14:24:11.063Z,77.90
2018-02-16T14:29:30.206Z,79.10
2018-02-16T14:31:57.130Z,77.60
2018-02-16T14:34:23.518Z,77.60
2018-02-16T14:36:49.717Z,77.20
2018-02-16T14:39:16.683Z,77.40
2018-02-16T14:41:42.921Z,77.30
2018-02-16T14:44:09.106Z,78.30
2018-02-16T14:46:35.369Z,77.90
2018-02-16T14:49:01.687Z,79.20
2018-02-16T14:51:28.869Z,78.60
2018-02-16T14:53:55.280Z,78.60
2018-02-16T14:56:21.528Z,78.40
2018-02-16T14:58:47.706Z,78.10
2018-02-16T15:01:13.963Z,79.10
2018-02-16T15:03:40.299Z,78.10
2018-02-16T15:06:06.710Z,77.80
2018-02-16T15:08:32.998Z,78.10
2018-02-16T15:10:59.165Z,78.10
2018-02-16T15:13:26.425Z,77.90
2018-02-16T15:15:53.533Z,78.60
2018-02-16T15:18:19.714Z,78.50
2018-02-16T15:20:46.696Z,78.20
2018-02-16T15:23:12.909Z,78.10
2018-02-16T15:25:39.125Z,78.90
2018-02-16T15:28:05.275Z,78.20
2018-02-16T15:30:31.464Z,77.90
2018-02-16T15:32:58.476Z,78.60
2018-02-16T15:35:24.646Z,78.50
2018-02-16T15:37:51.556Z,78.30
2018-02-16T15:40:17.772Z,78.30
2018-02-16T15:42:43.972Z,78.50
2018-02-16T15:45:10.242Z,79.00
2018-02-16T15:49:11.176Z,74.40
2018-02-16T15:51:37.404Z,74.40
2018-02-16T15:54:03.643Z,73.40
2018-02-16T15:56:29.816Z,73.50
2018-02-16T15:58:56.006Z,76.00
2018-02-16T16:01:22.178Z,75.50
2018-02-16T16:03:48.402Z,76.70
2018-02-16T16:06:15.375Z,77.80
2018-02-16T16:08:41.582Z,77.60
2018-02-16T16:11:07.759Z,77.60
2018-02-16T16:13:33.978Z,78.90
2018-02-16T16:16:00.149Z,79.30
2018-02-16T16:18:27.073Z,79.80
2018-02-16T16:20:53.319Z,79.70
2018-02-16T16:23:20.263Z,80.50
2018-02-16T16:25:47.193Z,80.20
2018-02-16T16:28:13.539Z,80.20
2018-02-16T16:30:40.485Z,79.50
2018-02-16T16:33:07.390Z,80.70
2018-02-16T16:35:33.594Z,80.50
2018-02-16T16:37:59.835Z,80.80
2018-02-16T16:40:26.025Z,80.70
2018-02-16T16:42:52.964Z,81.00
2018-02-16T16:45:19.986Z,80.90
2018-02-16T16:47:47.041Z,81.00
2018-02-16T16:50:13.242Z,80.90
2018-02-16T16:52:39.497Z,81.00
2018-02-16T16:55:05.717Z,81.10
2018-02-16T16:57:31.988Z,80.10
2018-02-16T16:59:58.482Z,80.30
2018-02-16T17:02:24.853Z,79.80
2018-02-16T17:04:51.099Z,79.80
2018-02-16T17:07:17.390Z,79.90
2018-02-16T17:09:43.582Z,80.60
2018-02-16T17:12:09.837Z,80.90
2018-02-16T17:14:36.082Z,80.30
2018-02-16T17:17:02.986Z,78.80
2018-02-16T17:19:29.162Z,78.60
2018-02-16T17:21:56.408Z,80.50
2018-02-16T17:24:23.813Z,80.20
2018-02-16T17:26:49.977Z,80.10
2018-02-16T17:29:16.169Z,80.50
2018-02-16T17:31:42.430Z,79.70
2018-02-16T17:34:08.753Z,80.50
2018-02-16T17:36:34.931Z,79.80
2018-02-16T17:39:01.182Z,80.40
2018-02-16T17:41:27.433Z,80.80
2018-02-16T17:43:55.032Z,80.80
2018-02-16T17:46:21.976Z,81.30
2018-02-16T17:48:48.902Z,81.20
2018-02-16T17:51:15.235Z,81.10
2018-02-16T17:53:41.647Z,80.20
2018-02-16T17:56:07.842Z,80.60
2018-02-16T17:58:34.147Z,80.40
2018-02-16T18:01:01.233Z,81.50
2018-02-16T18:03:27.443Z,81.40
2018-02-16T18:05:53.751Z,81.40
2018-02-16T18:08:20.705Z,81.70
2018-02-16T18:10:47.711Z,81.70
2018-02-16T18:13:13.923Z,81.70
2018-02-16T18:15:40.116Z,81.80
2018-02-16T18:18:06.285Z,82.20
2018-02-16T18:20:33.372Z,82.30
2018-02-16T18:23:00.333Z,83.00
2018-02-16T18:25:27.332Z,82.50
2018-02-16T18:27:53.545Z,82.50
2018-02-16T18:30:19.718Z,82.30
2018-02-16T18:32:45.948Z,82.50
2018-02-16T18:35:12.930Z,83.40
2018-02-16T18:37:39.104Z,82.70
2018-02-16T18:40:05.342Z,82.80
2018-02-16T18:42:31.537Z,82.80
2018-02-16T18:44:57.724Z,83.00
2018-02-16T18:47:24.775Z,83.10
2018-02-16T18:49:50.961Z,83.10
2018-02-16T18:52:17.153Z,83.20
2018-02-16T18:54:43.387Z,83.10
2018-02-16T18:57:09.578Z,83.20
2018-02-16T18:59:36.511Z,83.10
2018-02-16T19:02:02.781Z,83.10
2018-02-16T19:04:28.964Z,83.10
2018-02-16T19:06:55.178Z,83.10
2018-02-16T19:09:21.579Z,83.10
2018-02-16T19:11:47.773Z,83.20
2018-02-16T19:14:14.751Z,83.30
2018-02-16T19:16:40.962Z,83.30
2018-02-16T19:19:07.145Z,83.40
2018-02-16T19:21:33.342Z,83.50
2018-02-16T19:23:59.556Z,83.50
2018-02-16T19:26:25.745Z,83.50
2018-02-16T19:28:51.930Z,83.50
2018-02-16T19:31:18.141Z,83.60
2018-02-16T19:33:44.333Z,83.60
2018-02-16T19:36:10.524Z,83.60
2018-02-16T19:38:36.777Z,83.70
2018-02-16T19:41:03.073Z,83.70
2018-02-16T19:43:29.273Z,83.70
2018-02-16T19:45:55.447Z,83.70
2018-02-16T19:48:21.666Z,83.70
2018-02-16T19:50:47.915Z,83.70
2018-02-16T19:53:14.090Z,83.80
2018-02-16T19:55:40.270Z,83.90
2018-02-16T19:58:06.527Z,84.00
2018-02-16T20:00:33.453Z,83.90
2018-02-16T20:02:59.664Z,83.90
2018-02-16T20:05:25.873Z,84.00
2018-02-16T20:07:52.047Z,83.90
2018-02-16T20:10:18.322Z,84.10
2018-02-16T20:12:44.527Z,84.10
2018-02-16T20:15:10.742Z,84.10
2018-02-16T20:17:37.707Z,84.00
2018-02-16T20:20:03.931Z,84.00
2018-02-16T20:22:30.886Z,83.90
2018-02-16T20:24:57.082Z,83.90
2018-02-16T20:27:24.026Z,83.90
2018-02-16T20:29:50.984Z,84.00
2018-02-16T20:32:18.094Z,84.10
2018-02-16T20:34:44.305Z,83.90
2018-02-16T20:37:10.509Z,83.80
2018-02-16T20:39:36.725Z,83.90
2018-02-16T20:42:03.664Z,84.10
2018-02-16T20:44:30.632Z,84.00
2018-02-16T20:46:56.965Z,84.00
2018-02-16T20:49:23.311Z,84.00
2018-02-16T20:51:49.823Z,84.00
2018-02-16T20:54:16.072Z,84.10
2018-02-16T20:56:42.253Z,84.10
2018-02-16T20:59:08.482Z,84.10
2018-02-16T21:01:34.673Z,84.10
2018-02-16T21:04:00.971Z,84.10
2018-02-16T21:06:27.214Z,84.10
2018-02-16T21:08:53.455Z,84.00
2018-02-16T21:11:19.669Z,84.20
2018-02-16T21:13:45.929Z,84.10
2018-02-16T21:16:12.137Z,84.10
2018-02-16T21:18:38.337Z,84.10
2018-02-16T21:21:05.296Z,84.10
2018-02-16T21:23:31.479Z,84.10
2018-02-16T21:25:57.669Z,84.20
2018-02-16T21:28:23.939Z,84.20
2018-02-16T21:30:50.120Z,84.20
2018-02-16T21:33:16.313Z,84.20
2018-02-16T21:35:43.291Z,84.20
2018-02-16T21:38:09.535Z,84.10
2018-02-16T21:40:35.722Z,84.10
2018-02-16T21:43:02.734Z,84.10
2018-02-16T21:45:28.961Z,84.10
2018-02-16T21:47:55.171Z,84.10
2018-02-16T21:50:21.439Z,84.10
2018-02-16T21:52:47.643Z,84.10
2018-02-16T21:55:13.877Z,84.10
2018-02-16T21:57:40.074Z,84.10
2018-02-16T22:00:06.246Z,84.10
2018-02-16T22:02:32.437Z,84.10
2018-02-16T22:04:58.646Z,84.10
2018-02-16T22:07:24.823Z,84.10
2018-02-16T22:09:51.012Z,84.00
2018-02-16T22:12:17.246Z,84.00
2018-02-16T22:14:43.418Z,84.10
2018-02-16T22:17:09.593Z,84.10
2018-02-16T22:19:35.845Z,84.10
2018-02-16T22:22:02.030Z,84.10
2018-02-16T22:24:28.978Z,84.10
2018-02-16T22:26:55.960Z,84.30
2018-02-16T22:29:22.118Z,84.30
2018-02-16T22:31:48.313Z,84.30
2018-02-16T22:34:14.567Z,84.10
2018-02-16T22:36:40.841Z,84.10
2018-02-16T22:39:07.776Z,84.10
2018-02-16T22:41:34.762Z,84.20
2018-02-16T22:44:01.057Z,84.10
2018-02-16T22:46:28.041Z,84.10
2018-02-16T22:48:54.296Z,84.00
2018-02-16T22:51:20.497Z,84.00
2018-02-16T22:53:46.661Z,84.00
2018-02-16T22:56:12.905Z,84.10
2018-02-16T22:58:39.817Z,84.50
2018-02-16T23:01:06.060Z,84.00
2018-02-16T23:03:32.306Z,84.00
2018-02-16T23:05:58.485Z,84.00
2018-02-16T23:08:24.676Z,84.00
2018-02-16T23:10:51.634Z,84.10
2018-02-16T23:13:18.564Z,84.10
2018-02-16T23:15:45.490Z,83.90
2018-02-16T23:18:11.730Z,83.90
2018-02-16T23:20:37.916Z,84.00
2018-02-16T23:23:04.090Z,84.00
2018-02-16T23:25:30.340Z,84.10
2018-02-16T23:27:56.541Z,83.90
2018-02-16T23:30:22.734Z,84.00
2018-02-16T23:32:48.930Z,84.00
2018-02-16T23:35:15.120Z,84.00
2018-02-16T23:37:41.305Z,84.00
2018-02-16T23:40:07.676Z,83.90
2018-02-16T23:42:34.800Z,84.00
2018-02-16T23:45:02.726Z,84.00
2018-02-16T23:47:28.975Z,83.90
2018-02-16T23:49:55.175Z,84.00
2018-02-16T23:52:21.429Z,83.90
2018-02-16T23:54:47.698Z,84.00
2018-02-16T23:57:14.759Z,84.00
2018-02-16T23:59:41.017Z,83.90
